2022年5月27日 2:00 下午2022年5月27日 11:00 下午有效
时间
星期五
2:00 下午
>40%
星期五
3:00 下午
>40%
星期五
4:00 下午
星期五
5:00 下午
星期五
6:00 下午
星期五
7:00 下午
星期五
8:00 下午
星期五
9:00 下午
星期五
10:00 下午
代码
LIFR
LIFR
VFR
VFR
VFR
VFR
VFR
VFR
VFR
天气
天空晴朗
天空晴朗
天空晴朗
天空晴朗
天空晴朗
天空晴朗
天空晴朗
天空晴朗
天空晴朗
能见度
6¼ mi+
6¼ mi+
6¼ mi+
6¼ mi+
6¼ mi+
6¼ mi+
6¼ mi+
6¼ mi+
6¼ mi+
天花板
-
-
-
-
-
-
-
-
-
320°
320°
320°
320°
320°
320°
320°
320°
320°
320°
320°
320°
320°
320°
320°
320°
320°
320°
速度
10 kt
10 kt
10 kt
10 kt
10 kt
10 kt
10 kt
10 kt
10 kt
阵风
温度/星期日
9:24 下午

原版的

TAF LFLW 271100Z 2712/2721 32010KT CAVOK
TEMPO 2712/2714 SCT040

TAF Altisurface de La Taillade

Altisurface de La Taillade是La Taillade,法国中的小机场。 视场标高为2.913 ft。

这份报告是针对2022年5月27日 1:00 下午, 当地时间在Aurillac Airport进行的。 从2022年5月27日 2:00 下午到2022年5月27日 11:00 下午, 当地时间有效.

预报

  • 从星期五 2:00 下午到11:00 下午

    • 风: 风来自320°方向,速度为10 kt。
    • CAVOK: 天气为CAVOK。这意味着在5.000 ft或MSA(最低安全高度)以下(以较高者为准)以下没有云。这也意味着没有观测到积雨云或高耸的积云,可见度为6¼ mi 或者更多或更高。此外,不会有雾,降雨或其他重要天气。

  • 暂时在星期五 2:00 下午和4:00 下午之间

    • 乌云: 疏云,零星散落的云朵在4.000 ft的高度.

白天

今天,太阳从6:07 上午升起,在9:23 下午降落。 这适用于Altisurface de La Taillade,世界夏令时可能有所不同。 当地时间与世界标准时间之间的时差为+2 小时。 夏令时目前正在进行中。

下载我们的应用程序

在您的手机和平板电脑上轻松访问所有航空天气。
有许多网站上没有的功能,如离线支持和个人机场列表。

Studio Eveline

Benalmádena
España

我们和第三方通过cookies跟踪您在我们网站上的上网行为。如果您继续,我们认为您同意我们的cookie政策。 了解更多